createdAt,value
2023-04-10T00:03:53.214Z,3.58
2023-04-10T00:14:06.660Z,4.05
2023-04-10T00:19:15.081Z,4.85
2023-04-10T00:24:21.677Z,2.67
2023-04-10T00:29:28.376Z,4.03
2023-04-10T00:34:36.540Z,4.55
2023-04-10T00:39:42.916Z,3.33
2023-04-10T00:44:49.274Z,4.30
2023-04-10T00:49:57.249Z,4.60
2023-04-10T00:55:04.166Z,4.72
2023-04-10T01:00:12.519Z,3.97
2023-04-10T01:05:20.399Z,4.07
2023-04-10T01:15:49.656Z,3.92
2023-04-10T01:20:59.358Z,4.38
2023-04-10T01:26:08.213Z,4.63
2023-04-10T01:31:22.793Z,5.25
2023-04-10T01:36:35.780Z,6.85
2023-04-10T01:41:46.415Z,7.28
2023-04-10T01:46:57.145Z,6.72
2023-04-10T01:52:05.020Z,6.90
2023-04-10T01:57:14.453Z,4.85
2023-04-10T02:07:48.402Z,5.55
2023-04-10T02:13:01.696Z,5.90
2023-04-10T02:18:13.056Z,5.72
2023-04-10T02:23:20.838Z,5.40
2023-04-10T02:28:27.630Z,5.85
2023-04-10T02:33:35.635Z,4.75
2023-04-10T02:38:42.028Z,4.82
2023-04-10T02:43:50.340Z,5.53
2023-04-10T02:49:06.708Z,5.07
2023-04-10T02:54:13.244Z,4.60
2023-04-10T02:59:22.259Z,5.80
2023-04-10T03:04:30.461Z,5.20
2023-04-10T03:09:37.326Z,4.53
2023-04-10T03:14:43.900Z,4.45
2023-04-10T03:19:51.538Z,8.32
2023-04-10T03:24:59.220Z,6.82
2023-04-10T03:30:06.338Z,7.40
2023-04-10T03:35:20.859Z,6.35
2023-04-10T03:40:27.164Z,6.68
2023-04-10T03:45:34.933Z,5.63
2023-04-10T03:50:43.793Z,7.78
2023-04-10T03:55:50.552Z,5.93
2023-04-10T04:00:57.474Z,6.25
2023-04-10T04:06:14.123Z,5.75
2023-04-10T04:11:30.058Z,6.05
2023-04-10T04:16:40.304Z,5.82
2023-04-10T04:22:08.359Z,5.20
2023-04-10T04:27:35.049Z,5.63
2023-04-10T04:33:01.069Z,5.30
2023-04-10T04:38:27.168Z,5.50
2023-04-10T04:43:45.270Z,6.00
2023-04-10T04:49:01.160Z,5.30
2023-04-10T04:54:17.620Z,5.90
2023-04-10T04:59:46.012Z,5.55
2023-04-10T05:05:16.210Z,6.53
2023-04-10T05:10:34.361Z,5.88
2023-04-10T05:15:54.937Z,6.35
2023-04-10T05:21:31.634Z,6.85
2023-04-10T05:26:58.190Z,6.15
2023-04-10T05:48:29.118Z,5.95
2023-04-10T05:54:00.123Z,6.25
2023-04-10T05:59:20.707Z,7.57
2023-04-10T06:05:07.994Z,6.82
2023-04-10T06:10:19.316Z,7.60
2023-04-10T06:15:27.329Z,7.43
2023-04-10T06:20:35.499Z,6.78
2023-04-10T06:25:43.625Z,7.15
2023-04-10T06:30:50.354Z,7.40
2023-04-10T06:35:58.440Z,9.50
2023-04-10T06:41:07.196Z,7.88
2023-04-10T06:46:16.722Z,7.03
2023-04-10T06:51:34.932Z,7.82
2023-04-10T06:56:43.533Z,7.32
2023-04-10T07:01:51.535Z,7.38
2023-04-10T07:07:04.634Z,7.03
2023-04-10T07:12:13.835Z,7.18
2023-04-10T07:17:22.615Z,7.38
2023-04-10T07:27:42.165Z,7.40
2023-04-10T07:32:51.751Z,5.88
2023-04-10T07:38:01.515Z,6.35
2023-04-10T07:43:10.164Z,6.95
2023-04-10T07:48:17.806Z,6.80
2023-04-10T07:53:35.352Z,6.43
2023-04-10T07:58:48.139Z,7.18
2023-04-10T08:03:57.352Z,5.80
2023-04-10T08:09:08.260Z,5.20
2023-04-10T08:14:18.237Z,6.75
2023-04-10T08:19:25.702Z,5.53
2023-04-10T08:24:34.834Z,5.63
2023-04-10T08:29:42.555Z,5.45
2023-04-10T08:34:52.792Z,4.72
2023-04-10T08:40:02.361Z,4.88
2023-04-10T08:45:16.935Z,5.63
2023-04-10T08:50:31.778Z,4.13
2023-04-10T08:55:46.284Z,4.35
2023-04-10T09:01:00.778Z,4.68
2023-04-10T09:11:25.614Z,5.43
2023-04-10T09:16:37.469Z,5.05
2023-04-10T09:21:56.282Z,4.57
2023-04-10T09:27:10.866Z,4.60
2023-04-10T09:32:43.572Z,3.80
2023-04-10T09:37:56.686Z,3.30
2023-04-10T09:43:30.762Z,3.53
2023-04-10T09:49:02.796Z,3.15
2023-04-10T09:54:20.949Z,3.30
2023-04-10T09:59:40.219Z,2.83
2023-04-10T10:04:55.092Z,2.70
2023-04-10T10:10:06.243Z,2.70
2023-04-10T10:15:26.763Z,3.03
2023-04-10T10:20:41.518Z,2.10
2023-04-10T10:25:54.767Z,2.25
2023-04-10T10:31:11.657Z,2.25
2023-04-10T10:36:24.711Z,2.63
2023-04-10T10:41:43.590Z,2.42
2023-04-10T10:47:03.461Z,1.98
2023-04-10T10:52:12.420Z,2.42
2023-04-10T10:57:51.439Z,1.90
2023-04-10T11:03:35.280Z,2.30
2023-04-10T11:08:50.129Z,1.73
2023-04-10T11:14:22.031Z,1.70
2023-04-10T11:19:33.504Z,1.75
2023-04-10T11:25:01.431Z,2.25
2023-04-10T11:30:33.235Z,1.90
2023-04-10T11:35:48.881Z,1.95
2023-04-10T11:41:07.009Z,1.80
2023-04-10T11:46:15.894Z,1.70
2023-04-10T11:51:25.909Z,1.70
2023-04-10T11:56:34.061Z,1.70
2023-04-10T12:01:44.067Z,1.55
2023-04-10T12:06:59.497Z,1.70
2023-04-10T12:12:12.409Z,1.67
2023-04-10T12:17:21.816Z,1.92
2023-04-10T12:22:38.169Z,2.10
2023-04-10T12:27:53.304Z,1.58
2023-04-10T12:33:04.472Z,1.33
2023-04-10T12:38:14.263Z,1.85
2023-04-10T12:43:36.308Z,1.48
2023-04-10T12:48:45.636Z,1.40
2023-04-10T12:53:58.324Z,1.50
2023-04-10T12:59:10.017Z,2.28
2023-04-10T13:04:17.504Z,1.83
2023-04-10T13:09:29.077Z,1.50
2023-04-10T13:14:41.227Z,1.70
2023-04-10T13:19:49.596Z,1.80
2023-04-10T13:24:59.984Z,1.50
2023-04-10T13:30:10.140Z,1.58
2023-04-10T13:35:22.121Z,1.42
2023-04-10T13:40:37.554Z,1.48
2023-04-10T13:45:46.231Z,1.65
2023-04-10T13:51:03.730Z,2.90
2023-04-10T13:56:13.779Z,1.98
2023-04-10T14:01:24.426Z,1.60
2023-04-10T14:06:42.888Z,1.98
2023-04-10T14:11:53.885Z,1.40
2023-04-10T14:17:05.132Z,1.58
2023-04-10T14:22:15.283Z,1.40
2023-04-10T14:27:25.475Z,1.05
2023-04-10T14:32:39.138Z,1.60
2023-04-10T14:37:48.709Z,1.55
2023-04-10T14:48:12.275Z,1.25
2023-04-10T14:53:25.301Z,2.47
2023-04-10T14:58:36.521Z,1.52
2023-04-10T15:03:44.992Z,1.50
2023-04-10T15:08:57.930Z,1.48
2023-04-10T15:14:15.875Z,1.42
2023-04-10T15:19:28.950Z,1.77
2023-04-10T15:24:50.077Z,1.20
2023-04-10T15:30:03.469Z,1.45
2023-04-10T15:35:16.848Z,1.40
2023-04-10T15:40:25.416Z,1.55
2023-04-10T15:45:38.768Z,1.95
2023-04-10T15:50:48.425Z,1.80
2023-04-10T15:55:59.418Z,1.55
2023-04-10T16:01:11.751Z,1.33
2023-04-10T16:06:22.220Z,1.70
2023-04-10T16:11:32.769Z,1.33
2023-04-10T16:16:45.814Z,1.65
2023-04-10T16:21:55.682Z,1.85
2023-04-10T16:27:10.993Z,2.72
2023-04-10T16:32:23.274Z,3.03
2023-04-10T16:37:36.998Z,2.38
2023-04-10T16:42:51.445Z,2.90
2023-04-10T16:48:06.058Z,2.10
2023-04-10T16:53:20.635Z,1.88
2023-04-10T16:58:41.766Z,2.30
2023-04-10T17:03:59.830Z,3.22
2023-04-10T17:09:10.838Z,2.58
2023-04-10T17:14:24.538Z,2.40
2023-04-10T17:19:45.000Z,2.75
2023-04-10T17:25:02.366Z,2.90
2023-04-10T17:30:22.522Z,2.80
2023-04-10T17:35:46.395Z,3.67
2023-04-10T17:41:01.724Z,3.20
2023-04-10T17:46:31.470Z,7.18
2023-04-10T17:51:55.821Z,7.25
2023-04-10T17:57:21.312Z,3.63
2023-04-10T18:02:43.508Z,3.53
2023-04-10T18:08:07.569Z,5.22
2023-04-10T18:13:24.082Z,4.43
2023-04-10T18:18:36.496Z,4.47
2023-04-10T18:23:53.181Z,5.95
2023-04-10T18:29:13.921Z,4.68
2023-04-10T18:34:38.750Z,5.40
2023-04-10T18:40:15.980Z,5.07
2023-04-10T18:45:44.194Z,6.35
2023-04-10T18:51:23.886Z,5.97
2023-04-10T18:56:42.553Z,5.53
2023-04-10T19:02:04.865Z,4.43
2023-04-10T19:07:23.256Z,5.70
2023-04-10T19:12:45.597Z,4.93
2023-04-10T19:18:04.035Z,5.00
2023-04-10T19:23:27.707Z,4.40
2023-04-10T19:28:46.320Z,5.03
2023-04-10T19:34:05.729Z,5.60
2023-04-10T19:39:35.290Z,5.13
2023-04-10T19:44:55.816Z,4.72
2023-04-10T19:50:17.135Z,5.45
2023-04-10T19:55:35.995Z,5.80
2023-04-10T20:00:54.370Z,6.05
2023-04-10T20:06:14.583Z,5.78
2023-04-10T20:11:32.888Z,8.35
2023-04-10T20:16:49.912Z,5.50
2023-04-10T20:22:05.901Z,7.82
2023-04-10T20:27:20.191Z,6.90
2023-04-10T20:32:41.052Z,5.63
2023-04-10T20:37:54.810Z,7.00
2023-04-10T20:43:11.982Z,6.63
2023-04-10T20:48:22.604Z,5.43
2023-04-10T20:53:32.020Z,7.75
2023-04-10T20:58:42.081Z,16.23
2023-04-10T21:03:53.811Z,19.52
2023-04-10T21:09:06.520Z,17.75
2023-04-10T21:14:18.722Z,16.60
2023-04-10T21:19:29.025Z,17.55
2023-04-10T21:24:36.574Z,18.20
2023-04-10T21:29:43.570Z,17.55
2023-04-10T21:34:52.669Z,14.95
2023-04-10T21:40:01.664Z,14.35
2023-04-10T21:45:12.484Z,13.87
2023-04-10T21:50:25.355Z,16.58
2023-04-10T21:55:33.198Z,12.10
2023-04-10T22:00:41.980Z,12.30
2023-04-10T22:05:51.468Z,12.83
2023-04-10T22:10:58.491Z,14.45
2023-04-10T22:16:07.733Z,13.88
2023-04-10T22:21:15.801Z,15.15
2023-04-10T22:26:25.121Z,16.85
2023-04-10T22:31:31.869Z,17.92
2023-04-10T22:36:40.158Z,16.10
2023-04-10T22:41:47.004Z,19.35
2023-04-10T22:46:53.626Z,14.85
2023-04-10T22:52:01.499Z,17.40
2023-04-10T22:57:08.088Z,18.65
2023-04-10T23:02:14.812Z,17.92
2023-04-10T23:07:22.876Z,17.88
2023-04-10T23:12:29.326Z,17.45
2023-04-10T23:17:35.756Z,15.80
2023-04-10T23:22:43.448Z,16.98
2023-04-10T23:27:49.880Z,17.10
2023-04-10T23:32:56.365Z,17.02
2023-04-10T23:38:04.373Z,16.15
2023-04-10T23:43:10.742Z,19.15
2023-04-10T23:48:17.044Z,22.08
2023-04-10T23:53:24.795Z,21.00
2023-04-10T23:58:31.135Z,18.90
